sensor_id;sensor_type;location;lat;lon;timestamp;pressure;altitude;pressure_sealevel;temperature;humidity
76766;BME280;65707;52.362;6.588;2023-11-21T00:02:26;101079.88;;;10.13;85.72
76766;BME280;65707;52.362;6.588;2023-11-21T00:04:53;101087.63;;;10.24;85.30
76766;BME280;65707;52.362;6.588;2023-11-21T00:07:20;101088.28;;;10.26;85.32
76766;BME280;65707;52.362;6.588;2023-11-21T00:09:47;101086.94;;;10.22;85.17
76766;BME280;65707;52.362;6.588;2023-11-21T00:12:14;101087.69;;;10.06;85.58
76766;BME280;65707;52.362;6.588;2023-11-21T00:14:40;101090.44;;;10.14;85.22
76766;BME280;65707;52.362;6.588;2023-11-21T00:17:09;101085.75;;;10.16;84.91
76766;BME280;65707;52.362;6.588;2023-11-21T00:19:36;101086.94;;;10.22;85.15
76766;BME280;65707;52.362;6.588;2023-11-21T00:22:03;101091.56;;;10.12;85.43
76766;BME280;65707;52.362;6.588;2023-11-21T00:24:31;101090.31;;;10.24;85.54
76766;BME280;65707;52.362;6.588;2023-11-21T00:26:58;101083.16;;;10.07;85.22
76766;BME280;65707;52.362;6.588;2023-11-21T00:29:25;101076.53;;;9.93;86.25
76766;BME280;65707;52.362;6.588;2023-11-21T00:31:51;101086.06;;;9.88;86.03
76766;BME280;65707;52.362;6.588;2023-11-21T00:34:20;101080.50;;;9.81;86.99
76766;BME280;65707;52.362;6.588;2023-11-21T00:36:46;101086.72;;;9.90;86.59
76766;BME280;65707;52.362;6.588;2023-11-21T00:39:13;101078.69;;;9.90;86.48
76766;BME280;65707;52.362;6.588;2023-11-21T00:41:40;101088.94;;;9.69;86.55
76766;BME280;65707;52.362;6.588;2023-11-21T00:44:07;101090.34;;;9.81;87.74
76766;BME280;65707;52.362;6.588;2023-11-21T00:46:35;101094.75;;;9.82;87.74
76766;BME280;65707;52.362;6.588;2023-11-21T00:49:02;101096.72;;;9.80;86.71
76766;BME280;65707;52.362;6.588;2023-11-21T00:51:31;101103.13;;;9.87;87.04
76766;BME280;65707;52.362;6.588;2023-11-21T00:53:58;101099.84;;;9.93;86.27
76766;BME280;65707;52.362;6.588;2023-11-21T00:56:24;101104.81;;;9.88;87.62
76766;BME280;65707;52.362;6.588;2023-11-21T00:58:51;101108.69;;;9.93;87.36
76766;BME280;65707;52.362;6.588;2023-11-21T01:01:19;101102.19;;;9.70;88.00
76766;BME280;65707;52.362;6.588;2023-11-21T01:03:47;101107.59;;;9.78;87.47
76766;BME280;65707;52.362;6.588;2023-11-21T01:06:14;101112.50;;;9.83;87.13
76766;BME280;65707;52.362;6.588;2023-11-21T01:13:40;101125.94;;;9.91;87.18
76766;BME280;65707;52.362;6.588;2023-11-21T01:16:08;101126.25;;;9.88;86.43
76766;BME280;65707;52.362;6.588;2023-11-21T01:18:35;101129.31;;;9.93;87.24
76766;BME280;65707;52.362;6.588;2023-11-21T01:21:02;101132.88;;;10.01;87.49
76766;BME280;65707;52.362;6.588;2023-11-21T01:23:29;101137.22;;;9.94;87.44
76766;BME280;65707;52.362;6.588;2023-11-21T01:25:56;101144.47;;;10.02;87.43
76766;BME280;65707;52.362;6.588;2023-11-21T01:28:23;101149.75;;;10.11;86.66
76766;BME280;65707;52.362;6.588;2023-11-21T01:30:51;101138.00;;;10.12;86.24
76766;BME280;65707;52.362;6.588;2023-11-21T01:33:21;101151.16;;;10.06;86.54
76766;BME280;65707;52.362;6.588;2023-11-21T01:35:50;101149.59;;;10.13;85.85
76766;BME280;65707;52.362;6.588;2023-11-21T01:38:18;101148.38;;;10.07;85.98
76766;BME280;65707;52.362;6.588;2023-11-21T01:40:45;101164.97;;;10.11;86.85
76766;BME280;65707;52.362;6.588;2023-11-21T01:43:11;101163.97;;;10.12;86.36
76766;BME280;65707;52.362;6.588;2023-11-21T01:45:38;101161.34;;;10.20;86.42
76766;BME280;65707;52.362;6.588;2023-11-21T01:48:06;101161.59;;;10.09;85.81
76766;BME280;65707;52.362;6.588;2023-11-21T01:50:33;101156.25;;;10.09;86.25
76766;BME280;65707;52.362;6.588;2023-11-21T01:53:01;101145.44;;;10.01;86.51
76766;BME280;65707;52.362;6.588;2023-11-21T01:55:28;101164.03;;;10.20;86.01
76766;BME280;65707;52.362;6.588;2023-11-21T01:57:56;101161.41;;;10.28;86.01
76766;BME280;65707;52.362;6.588;2023-11-21T02:00:23;101160.06;;;10.24;86.01
76766;BME280;65707;52.362;6.588;2023-11-21T02:02:53;101161.25;;;10.29;86.14
76766;BME280;65707;52.362;6.588;2023-11-21T02:05:21;101149.28;;;10.16;85.66
76766;BME280;65707;52.362;6.588;2023-11-21T02:07:48;101167.72;;;10.19;85.60
76766;BME280;65707;52.362;6.588;2023-11-21T02:10:17;101169.91;;;10.23;86.07
76766;BME280;65707;52.362;6.588;2023-11-21T02:12:48;101163.38;;;10.26;85.56
76766;BME280;65707;52.362;6.588;2023-11-21T02:15:17;101164.41;;;10.25;85.34
76766;BME280;65707;52.362;6.588;2023-11-21T02:17:46;101160.84;;;10.16;85.22
76766;BME280;65707;52.362;6.588;2023-11-21T02:20:16;101162.34;;;10.19;85.53
76766;BME280;65707;52.362;6.588;2023-11-21T02:22:49;101157.03;;;10.27;85.78
76766;BME280;65707;52.362;6.588;2023-11-21T02:25:18;101167.72;;;10.19;85.88
76766;BME280;65707;52.362;6.588;2023-11-21T02:27:44;101169.38;;;10.20;85.42
76766;BME280;65707;52.362;6.588;2023-11-21T02:30:14;101169.06;;;10.23;85.48
76766;BME280;65707;52.362;6.588;2023-11-21T02:32:41;101174.09;;;10.18;85.19
76766;BME280;65707;52.362;6.588;2023-11-21T02:35:08;101173.13;;;10.27;85.81
76766;BME280;65707;52.362;6.588;2023-11-21T02:37:37;101169.75;;;10.25;85.15
76766;BME280;65707;52.362;6.588;2023-11-21T02:40:09;101167.13;;;10.33;86.00
76766;BME280;65707;52.362;6.588;2023-11-21T02:42:38;101176.50;;;10.29;85.54
76766;BME280;65707;52.362;6.588;2023-11-21T02:45:08;101166.38;;;10.23;85.97
76766;BME280;65707;52.362;6.588;2023-11-21T02:47:38;101163.38;;;10.18;85.23
76766;BME280;65707;52.362;6.588;2023-11-21T02:56:26;101175.75;;;10.19;86.01
76766;BME280;65707;52.362;6.588;2023-11-21T02:58:55;101179.75;;;10.15;85.66
76766;BME280;65707;52.362;6.588;2023-11-21T03:01:22;101177.69;;;10.09;85.59
76766;BME280;65707;52.362;6.588;2023-11-21T03:03:50;101192.13;;;10.08;85.53
76766;BME280;65707;52.362;6.588;2023-11-21T03:06:17;101189.19;;;10.01;86.14
76766;BME280;65707;52.362;6.588;2023-11-21T03:08:44;101194.31;;;9.95;86.10
76766;BME280;65707;52.362;6.588;2023-11-21T03:11:11;101205.28;;;9.84;86.20
76766;BME280;65707;52.362;6.588;2023-11-21T03:13:40;101212.16;;;10.04;86.05
76766;BME280;65707;52.362;6.588;2023-11-21T03:16:08;101211.09;;;9.97;86.11
76766;BME280;65707;52.362;6.588;2023-11-21T03:18:35;101200.38;;;9.97;86.10
76766;BME280;65707;52.362;6.588;2023-11-21T03:21:02;101202.91;;;9.98;86.59
76766;BME280;65707;52.362;6.588;2023-11-21T03:23:29;101203.91;;;9.97;86.10
76766;BME280;65707;52.362;6.588;2023-11-21T03:25:56;101203.75;;;9.81;86.07
76766;BME280;65707;52.362;6.588;2023-11-21T03:28:23;101205.75;;;9.79;87.05
76766;BME280;65707;52.362;6.588;2023-11-21T03:30:51;101210.72;;;9.92;86.48
76766;BME280;65707;52.362;6.588;2023-11-21T03:33:18;101217.41;;;9.88;86.64
76766;BME280;65707;52.362;6.588;2023-11-21T03:35:45;101206.13;;;9.84;86.68
76766;BME280;65707;52.362;6.588;2023-11-21T03:38:12;101209.09;;;9.99;86.70
76766;BME280;65707;52.362;6.588;2023-11-21T03:40:38;101204.38;;;9.75;86.66
76766;BME280;65707;52.362;6.588;2023-11-21T03:43:05;101216.78;;;9.94;87.19
76766;BME280;65707;52.362;6.588;2023-11-21T03:45:32;101214.41;;;9.91;86.44
76766;BME280;65707;52.362;6.588;2023-11-21T03:48:00;101226.31;;;9.96;87.02
76766;BME280;65707;52.362;6.588;2023-11-21T03:50:27;101222.59;;;10.07;86.39
76766;BME280;65707;52.362;6.588;2023-11-21T03:52:54;101222.53;;;10.16;86.06
76766;BME280;65707;52.362;6.588;2023-11-21T03:55:21;101225.59;;;10.29;85.38
76766;BME280;65707;52.362;6.588;2023-11-21T03:57:48;101227.34;;;10.13;86.07
76766;BME280;65707;52.362;6.588;2023-11-21T04:00:16;101223.09;;;10.28;85.91
76766;BME280;65707;52.362;6.588;2023-11-21T04:02:45;101217.75;;;10.10;86.01
76766;BME280;65707;52.362;6.588;2023-11-21T04:05:14;101222.38;;;10.18;85.23
76766;BME280;65707;52.362;6.588;2023-11-21T04:07:41;101229.78;;;10.24;85.38
76766;BME280;65707;52.362;6.588;2023-11-21T04:10:08;101231.69;;;10.14;85.36
76766;BME280;65707;52.362;6.588;2023-11-21T04:12:37;101236.44;;;10.20;86.07
76766;BME280;65707;52.362;6.588;2023-11-21T04:15:05;101214.09;;;10.11;84.92
76766;BME280;65707;52.362;6.588;2023-11-21T04:17:34;101242.19;;;10.07;84.81
76766;BME280;65707;52.362;6.588;2023-11-21T04:20:02;101238.75;;;10.15;85.81
76766;BME280;65707;52.362;6.588;2023-11-21T04:22:36;101252.59;;;10.28;85.29
76766;BME280;65707;52.362;6.588;2023-11-21T04:25:09;101251.78;;;10.27;85.44
76766;BME280;65707;52.362;6.588;2023-11-21T04:27:36;101253.75;;;10.25;84.78
76766;BME280;65707;52.362;6.588;2023-11-21T04:30:04;101262.69;;;10.34;84.31
76766;BME280;65707;52.362;6.588;2023-11-21T04:32:32;101260.88;;;10.17;85.07
76766;BME280;65707;52.362;6.588;2023-11-21T04:34:59;101264.88;;;10.13;85.31
76766;BME280;65707;52.362;6.588;2023-11-21T04:37:29;101273.91;;;10.12;85.25
76766;BME280;65707;52.362;6.588;2023-11-21T04:39:57;101272.22;;;9.93;85.36
76766;BME280;65707;52.362;6.588;2023-11-21T04:42:38;101262.66;;;9.91;86.07
76766;BME280;65707;52.362;6.588;2023-11-21T04:45:05;101273.13;;;10.02;85.72
76766;BME280;65707;52.362;6.588;2023-11-21T04:47:36;101281.94;;;10.12;85.83
76766;BME280;65707;52.362;6.588;2023-11-21T04:50:04;101265.19;;;10.10;86.22
76766;BME280;65707;52.362;6.588;2023-11-21T04:52:32;101281.28;;;10.27;85.76
76766;BME280;65707;52.362;6.588;2023-11-21T04:55:01;101282.41;;;10.25;85.31
76766;BME280;65707;52.362;6.588;2023-11-21T04:57:27;101287.47;;;10.28;85.69
76766;BME280;65707;52.362;6.588;2023-11-21T04:59:54;101284.41;;;10.23;85.71
76766;BME280;65707;52.362;6.588;2023-11-21T05:02:21;101298.50;;;10.25;84.97
76766;BME280;65707;52.362;6.588;2023-11-21T05:04:48;101302.25;;;10.32;86.07
76766;BME280;65707;52.362;6.588;2023-11-21T05:07:14;101301.09;;;10.34;86.28
76766;BME280;65707;52.362;6.588;2023-11-21T05:09:42;101301.00;;;10.44;85.54
76766;BME280;65707;52.362;6.588;2023-11-21T05:12:12;101321.63;;;10.43;84.62
76766;BME280;65707;52.362;6.588;2023-11-21T05:14:39;101317.47;;;10.49;85.28
76766;BME280;65707;52.362;6.588;2023-11-21T05:17:07;101329.91;;;10.32;85.02
76766;BME280;65707;52.362;6.588;2023-11-21T05:19:33;101334.44;;;10.32;85.67
76766;BME280;65707;52.362;6.588;2023-11-21T05:22:04;101344.00;;;10.34;86.12
76766;BME280;65707;52.362;6.588;2023-11-21T05:24:30;101339.28;;;10.28;85.87
76766;BME280;65707;52.362;6.588;2023-11-21T05:26:57;101325.78;;;10.38;85.62
76766;BME280;65707;52.362;6.588;2023-11-21T05:29:25;101340.53;;;10.42;85.65
76766;BME280;65707;52.362;6.588;2023-11-21T05:31:52;101319.09;;;10.42;85.03
76766;BME280;65707;52.362;6.588;2023-11-21T05:34:19;101338.72;;;10.25;85.25
76766;BME280;65707;52.362;6.588;2023-11-21T05:36:49;101346.16;;;10.31;86.15
76766;BME280;65707;52.362;6.588;2023-11-21T05:39:16;101348.53;;;10.34;86.67
76766;BME280;65707;52.362;6.588;2023-11-21T05:41:44;101357.50;;;10.42;85.79
76766;BME280;65707;52.362;6.588;2023-11-21T05:44:12;101357.41;;;10.52;86.23
76766;BME280;65707;52.362;6.588;2023-11-21T05:46:41;101363.47;;;10.54;86.37
76766;BME280;65707;52.362;6.588;2023-11-21T05:49:11;101377.56;;;10.38;86.26
76766;BME280;65707;52.362;6.588;2023-11-21T05:51:38;101363.81;;;10.59;84.39
76766;BME280;65707;52.362;6.588;2023-11-21T05:54:05;101378.56;;;10.55;85.38
76766;BME280;65707;52.362;6.588;2023-11-21T05:56:33;101372.03;;;10.57;84.87
76766;BME280;65707;52.362;6.588;2023-11-21T05:59:00;101379.50;;;10.46;86.02
76766;BME280;65707;52.362;6.588;2023-11-21T06:01:27;101384.94;;;10.54;85.61
76766;BME280;65707;52.362;6.588;2023-11-21T06:03:55;101383.00;;;10.46;85.17
76766;BME280;65707;52.362;6.588;2023-11-21T06:06:21;101388.09;;;10.32;85.72
76766;BME280;65707;52.362;6.588;2023-11-21T06:08:50;101387.94;;;10.16;86.35
76766;BME280;65707;52.362;6.588;2023-11-21T06:11:16;101388.53;;;10.10;86.73
76766;BME280;65707;52.362;6.588;2023-11-21T06:13:44;101401.84;;;10.02;87.36
76766;BME280;65707;52.362;6.588;2023-11-21T06:16:10;101399.84;;;10.04;87.41
76766;BME280;65707;52.362;6.588;2023-11-21T06:18:40;101402.63;;;10.12;87.33
76766;BME280;65707;52.362;6.588;2023-11-21T06:21:10;101402.63;;;10.12;87.77
76766;BME280;65707;52.362;6.588;2023-11-21T06:23:37;101401.25;;;10.08;87.83
76766;BME280;65707;52.362;6.588;2023-11-21T06:26:05;101404.91;;;10.07;87.12
76766;BME280;65707;52.362;6.588;2023-11-21T06:28:32;101410.50;;;10.13;88.08
76766;BME280;65707;52.362;6.588;2023-11-21T06:30:58;101411.91;;;10.17;87.54
76766;BME280;65707;52.362;6.588;2023-11-21T06:33:30;101426.75;;;10.12;87.51
76766;BME280;65707;52.362;6.588;2023-11-21T06:35:58;101426.78;;;10.29;86.69
76766;BME280;65707;52.362;6.588;2023-11-21T06:38:29;101433.38;;;10.35;86.88
76766;BME280;65707;52.362;6.588;2023-11-21T06:40:57;101439.38;;;10.29;86.78
76766;BME280;65707;52.362;6.588;2023-11-21T06:43:27;101441.94;;;10.38;86.84
76766;BME280;65707;52.362;6.588;2023-11-21T06:45:54;101439.41;;;10.37;86.36
76766;BME280;65707;52.362;6.588;2023-11-21T06:48:21;101442.81;;;10.39;87.08
76766;BME280;65707;52.362;6.588;2023-11-21T06:50:47;101448.69;;;10.25;87.21
76766;BME280;65707;52.362;6.588;2023-11-21T06:53:14;101451.31;;;10.34;86.26
76766;BME280;65707;52.362;6.588;2023-11-21T06:55:42;101451.06;;;10.28;86.60
76766;BME280;65707;52.362;6.588;2023-11-21T06:58:09;101455.81;;;10.34;86.27
76766;BME280;65707;52.362;6.588;2023-11-21T07:00:36;101458.91;;;10.39;86.71
76766;BME280;65707;52.362;6.588;2023-11-21T07:03:02;101468.88;;;10.29;87.20
76766;BME280;65707;52.362;6.588;2023-11-21T07:05:29;101477.13;;;10.35;87.32
76766;BME280;65707;52.362;6.588;2023-11-21T07:07:56;101475.75;;;10.31;87.98
76766;BME280;65707;52.362;6.588;2023-11-21T07:10:25;101472.47;;;10.37;87.53
76766;BME280;65707;52.362;6.588;2023-11-21T07:12:53;101481.97;;;10.49;86.50
76766;BME280;65707;52.362;6.588;2023-11-21T07:15:22;101493.38;;;10.34;87.08
76766;BME280;65707;52.362;6.588;2023-11-21T07:17:51;101487.34;;;10.32;87.15
76766;BME280;65707;52.362;6.588;2023-11-21T07:20:19;101493.09;;;10.54;87.11
76766;BME280;65707;52.362;6.588;2023-11-21T07:22:46;101495.09;;;10.70;85.94
76766;BME280;65707;52.362;6.588;2023-11-21T07:25:13;101509.75;;;10.58;86.15
76766;BME280;65707;52.362;6.588;2023-11-21T07:27:40;101507.00;;;10.67;86.19
76766;BME280;65707;52.362;6.588;2023-11-21T07:30:09;101521.03;;;10.79;84.66
76766;BME280;65707;52.362;6.588;2023-11-21T07:32:40;101520.13;;;10.88;85.01
76766;BME280;65707;52.362;6.588;2023-11-21T07:35:08;101513.88;;;10.87;85.07
76766;BME280;65707;52.362;6.588;2023-11-21T07:37:35;101525.72;;;10.77;85.05
76766;BME280;65707;52.362;6.588;2023-11-21T07:40:02;101526.41;;;10.79;85.21
76766;BME280;65707;52.362;6.588;2023-11-21T07:42:29;101537.28;;;10.95;85.52
76766;BME280;65707;52.362;6.588;2023-11-21T07:44:56;101549.00;;;10.76;84.82
76766;BME280;65707;52.362;6.588;2023-11-21T07:47:24;101551.09;;;10.65;86.12
76766;BME280;65707;52.362;6.588;2023-11-21T07:49:52;101562.59;;;10.75;87.15
76766;BME280;65707;52.362;6.588;2023-11-21T07:52:21;101566.88;;;10.85;85.94
76766;BME280;65707;52.362;6.588;2023-11-21T07:54:47;101563.38;;;11.03;86.71
76766;BME280;65707;52.362;6.588;2023-11-21T07:57:14;101563.06;;;10.88;86.49
76766;BME280;65707;52.362;6.588;2023-11-21T07:59:41;101565.06;;;11.04;86.01
76766;BME280;65707;52.362;6.588;2023-11-21T08:02:08;101563.47;;;10.93;85.62
76766;BME280;65707;52.362;6.588;2023-11-21T08:04:36;101570.75;;;10.56;86.81
76766;BME280;65707;52.362;6.588;2023-11-21T08:07:03;101575.41;;;10.81;87.71
76766;BME280;65707;52.362;6.588;2023-11-21T08:09:30;101581.13;;;10.68;87.41
76766;BME280;65707;52.362;6.588;2023-11-21T08:11:57;101588.72;;;10.55;87.90
76766;BME280;65707;52.362;6.588;2023-11-21T08:14:25;101589.56;;;10.56;88.83
76766;BME280;65707;52.362;6.588;2023-11-21T08:16:52;101594.66;;;10.49;89.05
76766;BME280;65707;52.362;6.588;2023-11-21T08:19:22;101602.09;;;10.65;88.10
76766;BME280;65707;52.362;6.588;2023-11-21T08:21:51;101606.44;;;10.66;88.51
76766;BME280;65707;52.362;6.588;2023-11-21T08:24:20;101612.16;;;10.80;88.86
76766;BME280;65707;52.362;6.588;2023-11-21T08:26:47;101611.72;;;10.85;87.69
76766;BME280;65707;52.362;6.588;2023-11-21T08:29:14;101612.31;;;10.79;86.97
76766;BME280;65707;52.362;6.588;2023-11-21T08:31:42;101616.94;;;10.59;87.28
76766;BME280;65707;52.362;6.588;2023-11-21T08:34:10;101623.47;;;10.57;88.35
76766;BME280;65707;52.362;6.588;2023-11-21T08:36:41;101625.34;;;10.74;87.51
76766;BME280;65707;52.362;6.588;2023-11-21T08:39:10;101635.47;;;10.53;88.11
76766;BME280;65707;52.362;6.588;2023-11-21T08:41:38;101635.38;;;10.45;88.89
76766;BME280;65707;52.362;6.588;2023-11-21T08:44:06;101636.78;;;10.49;88.98
76766;BME280;65707;52.362;6.588;2023-11-21T08:46:33;101634.84;;;10.41;89.34
76766;BME280;65707;52.362;6.588;2023-11-21T08:49:03;101642.91;;;10.59;89.53
76766;BME280;65707;52.362;6.588;2023-11-21T08:51:31;101640.50;;;10.65;89.77
76766;BME280;65707;52.362;6.588;2023-11-21T08:53:58;101637.59;;;10.49;89.42
76766;BME280;65707;52.362;6.588;2023-11-21T08:56:31;101642.75;;;10.87;88.58
76766;BME280;65707;52.362;6.588;2023-11-21T08:58:57;101639.00;;;10.80;87.99
76766;BME280;65707;52.362;6.588;2023-11-21T09:01:25;101645.81;;;10.75;88.00
76766;BME280;65707;52.362;6.588;2023-11-21T09:03:52;101653.06;;;10.92;88.18
76766;BME280;65707;52.362;6.588;2023-11-21T09:06:19;101663.38;;;10.87;88.04
76766;BME280;65707;52.362;6.588;2023-11-21T09:08:46;101670.81;;;10.75;88.33
76766;BME280;65707;52.362;6.588;2023-11-21T09:11:13;101671.13;;;11.17;88.84
76766;BME280;65707;52.362;6.588;2023-11-21T09:13:41;101675.59;;;11.26;87.48
76766;BME280;65707;52.362;6.588;2023-11-21T09:16:08;101674.66;;;11.18;87.02
76766;BME280;65707;52.362;6.588;2023-11-21T09:18:36;101677.00;;;11.03;87.87
76766;BME280;65707;52.362;6.588;2023-11-21T09:21:03;101684.94;;;11.22;88.12
76766;BME280;65707;52.362;6.588;2023-11-21T09:23:30;101683.25;;;11.56;86.76
76766;BME280;65707;52.362;6.588;2023-11-21T09:25:57;101688.56;;;11.31;87.27
76766;BME280;65707;52.362;6.588;2023-11-21T09:28:26;101694.78;;;11.31;86.82
76766;BME280;65707;52.362;6.588;2023-11-21T09:30:54;101700.22;;;11.39;87.20
76766;BME280;65707;52.362;6.588;2023-11-21T09:33:21;101697.84;;;11.36;87.52
76766;BME280;65707;52.362;6.588;2023-11-21T09:35:50;101697.91;;;11.71;86.30
76766;BME280;65707;52.362;6.588;2023-11-21T09:38:17;101709.91;;;11.32;87.45
76766;BME280;65707;52.362;6.588;2023-11-21T09:40:44;101708.63;;;11.54;87.09
76766;BME280;65707;52.362;6.588;2023-11-21T09:43:16;101715.47;;;11.83;85.73
76766;BME280;65707;52.362;6.588;2023-11-21T09:45:45;101716.31;;;11.66;87.05
76766;BME280;65707;52.362;6.588;2023-11-21T09:48:14;101733.25;;;11.76;88.26
76766;BME280;65707;52.362;6.588;2023-11-21T09:50:43;101733.75;;;11.80;87.09
76766;BME280;65707;52.362;6.588;2023-11-21T09:53:13;101733.63;;;11.64;87.38
76766;BME280;65707;52.362;6.588;2023-11-21T09:55:46;101742.28;;;11.75;86.87
76766;BME280;65707;52.362;6.588;2023-11-21T09:58:15;101744.59;;;11.70;86.34
76766;BME280;65707;52.362;6.588;2023-11-21T10:00:44;101752.06;;;11.76;85.43
76766;BME280;65707;52.362;6.588;2023-11-21T10:03:11;101757.50;;;11.84;85.25
76766;BME280;65707;52.362;6.588;2023-11-21T10:05:42;101760.34;;;11.83;85.38
76766;BME280;65707;52.362;6.588;2023-11-21T10:08:11;101759.34;;;12.01;85.03
76766;BME280;65707;52.362;6.588;2023-11-21T10:10:43;101752.94;;;11.67;86.12
76766;BME280;65707;52.362;6.588;2023-11-21T10:13:11;101761.38;;;11.55;86.60
76766;BME280;65707;52.362;6.588;2023-11-21T10:15:42;101753.44;;;11.53;87.26
76766;BME280;65707;52.362;6.588;2023-11-21T10:18:14;101763.63;;;11.59;86.39
76766;BME280;65707;52.362;6.588;2023-11-21T10:20:44;101763.28;;;11.72;86.63
76766;BME280;65707;52.362;6.588;2023-11-21T10:23:18;101765.72;;;11.65;86.67
76766;BME280;65707;52.362;6.588;2023-11-21T10:25:46;101767.81;;;11.71;85.62
76766;BME280;65707;52.362;6.588;2023-11-21T10:28:13;101764.59;;;11.58;86.57
76766;BME280;65707;52.362;6.588;2023-11-21T10:30:41;101770.34;;;11.73;85.19
76766;BME280;65707;52.362;6.588;2023-11-21T10:33:07;101771.28;;;11.54;86.51
76766;BME280;65707;52.362;6.588;2023-11-21T10:35:45;101768.56;;;11.64;86.77
76766;BME280;65707;52.362;6.588;2023-11-21T10:38:16;101777.16;;;11.67;86.83
76766;BME280;65707;52.362;6.588;2023-11-21T10:40:43;101786.94;;;11.68;86.54
76766;BME280;65707;52.362;6.588;2023-11-21T10:43:12;101794.53;;;11.73;85.41
76766;BME280;65707;52.362;6.588;2023-11-21T10:45:40;101793.22;;;11.77;84.36
76766;BME280;65707;52.362;6.588;2023-11-21T10:48:09;101796.53;;;11.71;85.33
76766;BME280;65707;52.362;6.588;2023-11-21T10:50:37;101805.19;;;11.65;85.77
76766;BME280;65707;52.362;6.588;2023-11-21T10:53:05;101797.84;;;11.67;85.51
76766;BME280;65707;52.362;6.588;2023-11-21T10:55:33;101804.59;;;11.71;85.84
76766;BME280;65707;52.362;6.588;2023-11-21T10:58:01;101812.88;;;11.50;86.62
76766;BME280;65707;52.362;6.588;2023-11-21T11:00:31;101804.44;;;11.90;85.14
76766;BME280;65707;52.362;6.588;2023-11-21T11:03:00;101813.28;;;11.82;84.48
76766;BME280;65707;52.362;6.588;2023-11-21T11:05:29;101816.81;;;11.65;85.52
76766;BME280;65707;52.362;6.588;2023-11-21T11:07:59;101823.56;;;11.69;85.67
76766;BME280;65707;52.362;6.588;2023-11-21T11:10:30;101819.06;;;11.60;85.31
76766;BME280;65707;52.362;6.588;2023-11-21T11:12:58;101823.00;;;11.66;84.98
76766;BME280;65707;52.362;6.588;2023-11-21T11:15:27;101830.72;;;11.51;86.33
76766;BME280;65707;52.362;6.588;2023-11-21T11:17:54;101832.41;;;11.52;85.99
76766;BME280;65707;52.362;6.588;2023-11-21T11:20:23;101832.63;;;11.41;87.08
76766;BME280;65707;52.362;6.588;2023-11-21T11:23:11;101832.66;;;11.59;85.51
76766;BME280;65707;52.362;6.588;2023-11-21T11:26:04;101834.06;;;11.63;85.34
76766;BME280;65707;52.362;6.588;2023-11-21T11:28:45;101831.56;;;11.52;85.80
76766;BME280;65707;52.362;6.588;2023-11-21T11:31:27;101842.13;;;11.36;86.88
76766;BME280;65707;52.362;6.588;2023-11-21T11:34:17;101851.78;;;11.29;86.83
76766;BME280;65707;52.362;6.588;2023-11-21T11:36:55;101856.03;;;11.22;87.08
76766;BME280;65707;52.362;6.588;2023-11-21T11:39:28;101853.59;;;11.01;87.83
76766;BME280;65707;52.362;6.588;2023-11-21T11:42:03;101864.47;;;11.00;88.12
76766;BME280;65707;52.362;6.588;2023-11-21T11:44:51;101863.09;;;10.86;88.23
76766;BME280;65707;52.362;6.588;2023-11-21T11:47:23;101866.06;;;10.83;88.73
76766;BME280;65707;52.362;6.588;2023-11-21T11:50:07;101872.91;;;10.68;88.90
76766;BME280;65707;52.362;6.588;2023-11-21T11:52:39;101875.72;;;10.57;89.78
76766;BME280;65707;52.362;6.588;2023-11-21T11:55:09;101880.66;;;10.61;88.96
76766;BME280;65707;52.362;6.588;2023-11-21T11:57:41;101881.25;;;10.65;88.84
76766;BME280;65707;52.362;6.588;2023-11-21T12:00:11;101887.00;;;10.51;89.10
76766;BME280;65707;52.362;6.588;2023-11-21T12:02:45;101891.41;;;10.52;89.55
76766;BME280;65707;52.362;6.588;2023-11-21T12:05:14;101895.22;;;10.49;89.67
76766;BME280;65707;52.362;6.588;2023-11-21T12:07:44;101897.63;;;10.52;89.35
76766;BME280;65707;52.362;6.588;2023-11-21T12:10:14;101892.66;;;10.48;89.80
76766;BME280;65707;52.362;6.588;2023-11-21T12:12:48;101894.50;;;10.66;88.39
76766;BME280;65707;52.362;6.588;2023-11-21T12:15:18;101902.56;;;10.57;89.04
76766;BME280;65707;52.362;6.588;2023-11-21T12:17:47;101905.94;;;10.59;88.16
76766;BME280;65707;52.362;6.588;2023-11-21T12:20:18;101911.31;;;10.68;87.64
76766;BME280;65707;52.362;6.588;2023-11-21T12:22:46;101914.69;;;10.61;87.36
76766;BME280;65707;52.362;6.588;2023-11-21T12:25:14;101914.56;;;10.62;87.91
76766;BME280;65707;52.362;6.588;2023-11-21T12:27:44;101915.69;;;10.79;87.62
76766;BME280;65707;52.362;6.588;2023-11-21T12:30:13;101918.75;;;10.84;87.14
76766;BME280;65707;52.362;6.588;2023-11-21T12:32:41;101921.81;;;11.18;86.13
76766;BME280;65707;52.362;6.588;2023-11-21T12:35:09;101923.19;;;11.22;84.94
76766;BME280;65707;52.362;6.588;2023-11-21T12:37:37;101922.81;;;11.17;84.84
76766;BME280;65707;52.362;6.588;2023-11-21T12:40:06;101932.13;;;11.22;84.26
76766;BME280;65707;52.362;6.588;2023-11-21T12:42:37;101942.38;;;11.00;84.31
76766;BME280;65707;52.362;6.588;2023-11-21T12:45:07;101945.16;;;10.98;85.67
76766;BME280;65707;52.362;6.588;2023-11-21T12:47:41;101938.66;;;11.10;85.05
76766;BME280;65707;52.362;6.588;2023-11-21T12:50:11;101947.53;;;11.20;83.62
76766;BME280;65707;52.362;6.588;2023-11-21T12:52:47;101945.88;;;11.10;83.51
76766;BME280;65707;52.362;6.588;2023-11-21T12:55:16;101951.97;;;11.02;83.20
76766;BME280;65707;52.362;6.588;2023-11-21T12:57:44;101953.34;;;11.16;81.87
76766;BME280;65707;52.362;6.588;2023-11-21T13:00:16;101953.38;;;10.96;81.85
76766;BME280;65707;52.362;6.588;2023-11-21T13:02:54;101954.81;;;10.91;80.51
76766;BME280;65707;52.362;6.588;2023-11-21T13:05:24;101967.09;;;10.74;81.57
76766;BME280;65707;52.362;6.588;2023-11-21T13:07:56;101967.53;;;10.79;81.13
76766;BME280;65707;52.362;6.588;2023-11-21T13:10:30;101970.06;;;10.71;80.22